Time;durP1;ratioP1;P1;durP2;ratioP2;P2;SDS_P1;SDS_P2;PMS_P1;PMS_P2;Temp;Humidity;BMP_temperature;BMP_pressure;BME280_temperature;BME280_humidity;BME280_pressure;Samples;Min_cycle;Max_cycle;Signal;HPM_P1;HPM_P2
2022/12/03 00:01:03;;;;;;;64.63;25.23;;;;;;;;;;4989631;28;20482;-82
2022/12/03 00:03:29;;;;;;;61.17;24.77;;;;;;;;;;5006396;28;20723;-81
2022/12/03 00:05:54;;;;;;;62.50;21.27;;;;;;;;;;4989836;28;20021;-82
2022/12/03 00:08:20;;;;;;;61.33;21.50;;;;;;;;;;5006261;28;20113;-82
2022/12/03 00:10:45;;;;;;;66.33;22.23;;;;;;;;;;4992675;28;20077;-81
2022/12/03 00:13:11;;;;;;;60.83;20.97;;;;;;;;;;4989928;28;20026;-82
2022/12/03 00:15:36;;;;;;;58.67;22.40;;;;;;;;;;4989894;28;20161;-82
2022/12/03 00:18:02;;;;;;;64.20;21.87;;;;;;;;;;4991323;28;20105;-82
2022/12/03 00:20:27;;;;;;;63.73;22.80;;;;;;;;;;4991495;28;20061;-82
2022/12/03 00:22:53;;;;;;;66.30;22.53;;;;;;;;;;4995101;28;20030;-81
2022/12/03 00:25:18;;;;;;;64.63;21.07;;;;;;;;;;5010394;28;20063;-81
2022/12/03 00:27:44;;;;;;;62.70;22.37;;;;;;;;;;4976721;28;20030;-81
2022/12/03 00:30:10;;;;;;;66.13;21.67;;;;;;;;;;4974563;28;20878;-82
2022/12/03 00:32:36;;;;;;;64.87;21.80;;;;;;;;;;4974683;28;20030;-82
2022/12/03 00:35:01;;;;;;;64.27;21.43;;;;;;;;;;4975100;28;20820;-81
2022/12/03 00:37:27;;;;;;;58.90;21.03;;;;;;;;;;4974169;28;20109;-81
2022/12/03 00:39:52;;;;;;;59.17;21.10;;;;;;;;;;4975479;28;20042;-81
2022/12/03 00:42:18;;;;;;;67.93;23.60;;;;;;;;;;4976005;28;20452;-83
2022/12/03 00:44:43;;;;;;;57.13;20.80;;;;;;;;;;4975202;28;20045;-81
2022/12/03 00:47:09;;;;;;;55.17;20.53;;;;;;;;;;4975848;28;20368;-83
2022/12/03 00:49:35;;;;;;;60.60;21.13;;;;;;;;;;4976626;28;20023;-82
2022/12/03 00:52:00;;;;;;;60.27;20.27;;;;;;;;;;4976993;28;20028;-81
2022/12/03 00:54:25;;;;;;;56.77;21.03;;;;;;;;;;4976144;28;20118;-82
2022/12/03 00:56:51;;;;;;;68.23;23.03;;;;;;;;;;4979259;28;20052;-81
2022/12/03 00:59:17;;;;;;;55.80;20.33;;;;;;;;;;4980041;28;20029;-82
2022/12/03 01:01:42;;;;;;;60.03;20.00;;;;;;;;;;4979438;28;20081;-81
2022/12/03 01:04:08;;;;;;;75.07;25.97;;;;;;;;;;4974311;28;20035;-83
2022/12/03 01:06:33;;;;;;;57.83;22.97;;;;;;;;;;4990389;28;20022;-82
2022/12/03 01:08:59;;;;;;;58.63;21.13;;;;;;;;;;4973792;28;20088;-82
2022/12/03 01:11:36;;;;;;;56.40;21.47;;;;;;;;;;4976186;28;20062;-81
2022/12/03 01:14:03;;;;;;;55.97;20.17;;;;;;;;;;4974222;28;20062;-80
2022/12/03 01:16:28;;;;;;;55.63;19.53;;;;;;;;;;4975975;28;20030;-80
2022/12/03 01:18:54;;;;;;;62.90;22.33;;;;;;;;;;4975030;28;20038;-81
2022/12/03 01:21:19;;;;;;;56.47;22.43;;;;;;;;;;4974093;28;20033;-81
2022/12/03 01:23:45;;;;;;;64.20;27.63;;;;;;;;;;4975926;28;20444;-81
2022/12/03 01:26:10;;;;;;;54.77;21.30;;;;;;;;;;4974759;28;20069;-81
2022/12/03 01:28:36;;;;;;;64.37;22.37;;;;;;;;;;4976552;28;20035;-82
2022/12/03 01:33:45;;;;;;;67.90;24.03;;;;;;;;;;4978502;28;20065;-80
2022/12/03 01:36:11;;;;;;;71.07;22.40;;;;;;;;;;4977878;28;20026;-81
2022/12/03 01:38:36;;;;;;;70.10;23.43;;;;;;;;;;4976167;28;20049;-80
2022/12/03 01:41:02;;;;;;;67.00;21.93;;;;;;;;;;4974099;28;20027;-80
2022/12/03 01:43:27;;;;;;;65.20;22.60;;;;;;;;;;4995974;28;20057;-80
2022/12/03 01:45:53;;;;;;;64.23;23.37;;;;;;;;;;4984465;28;20031;-79
2022/12/03 01:48:19;;;;;;;61.90;21.97;;;;;;;;;;4978346;28;20036;-81
2022/12/03 01:50:44;;;;;;;67.43;22.83;;;;;;;;;;4974668;28;20050;-80
2022/12/03 01:53:14;;;;;;;67.63;23.87;;;;;;;;;;4974616;28;20027;-80
2022/12/03 01:55:42;;;;;;;63.93;22.70;;;;;;;;;;4973504;28;20117;-80
2022/12/03 01:58:12;;;;;;;62.77;23.70;;;;;;;;;;4988965;28;20130;-81
2022/12/03 02:00:39;;;;;;;72.23;22.57;;;;;;;;;;4972904;28;20114;-81
2022/12/03 02:03:15;;;;;;;66.13;23.03;;;;;;;;;;4974337;28;20054;-81
2022/12/03 02:05:41;;;;;;;62.87;21.03;;;;;;;;;;4974287;28;20027;-81
2022/12/03 02:08:44;;;;;;;64.17;23.63;;;;;;;;;;4972300;28;20027;-81
2022/12/03 02:11:20;;;;;;;;;;;;;;;;;;4974925;28;20479;-82
2022/12/03 02:13:49;;;;;;;63.93;21.87;;;;;;;;;;4973189;28;19910;-81
2022/12/03 02:16:14;;;;;;;69.23;23.07;;;;;;;;;;4974229;28;20026;-80
2022/12/03 02:18:41;;;;;;;60.50;21.70;;;;;;;;;;4972687;28;20035;-80
2022/12/03 02:21:22;;;;;;;68.90;23.67;;;;;;;;;;4973561;28;20027;-81
2022/12/03 02:24:03;;;;;;;72.18;22.95;;;;;;;;;;4973946;28;20101;-80
2022/12/03 02:26:29;;;;;;;65.67;22.00;;;;;;;;;;4973932;28;20464;-82
2022/12/03 02:28:55;;;;;;;68.10;22.47;;;;;;;;;;4989918;28;20034;-81
2022/12/03 02:31:21;;;;;;;71.13;23.07;;;;;;;;;;4990232;28;20023;-80
2022/12/03 02:33:46;;;;;;;80.73;24.63;;;;;;;;;;4974812;28;20085;-82
2022/12/03 02:36:12;;;;;;;69.07;22.27;;;;;;;;;;4973289;28;20045;-81
2022/12/03 02:38:38;;;;;;;68.87;23.83;;;;;;;;;;4974141;28;20030;-81
2022/12/03 02:41:08;;;;;;;74.73;23.47;;;;;;;;;;4972036;28;20423;-81
2022/12/03 02:43:34;;;;;;;74.50;24.13;;;;;;;;;;4971298;28;20027;-81
2022/12/03 02:46:01;;;;;;;71.23;22.93;;;;;;;;;;4971201;28;20037;-80
2022/12/03 02:48:34;;;;;;;68.77;23.87;;;;;;;;;;4971738;28;20101;-80
2022/12/03 02:51:04;;;;;;;69.43;23.47;;;;;;;;;;4972927;28;20085;-81
2022/12/03 02:53:40;;;;;;;67.63;22.57;;;;;;;;;;4973205;28;20065;-81
2022/12/03 02:56:07;;;;;;;61.50;21.07;;;;;;;;;;4971864;28;20114;-80
2022/12/03 02:58:33;;;;;;;76.13;24.00;;;;;;;;;;4973184;28;20085;-80
2022/12/03 03:01:01;;;;;;;63.57;22.23;;;;;;;;;;4971566;28;20475;-80
2022/12/03 03:03:28;;;;;;;72.33;23.03;;;;;;;;;;4973274;28;20019;-81
2022/12/03 03:05:55;;;;;;;69.73;22.40;;;;;;;;;;4956851;28;20019;-80
2022/12/03 03:08:21;;;;;;;62.13;22.03;;;;;;;;;;4971404;28;20046;-81
2022/12/03 03:10:48;;;;;;;72.57;23.17;;;;;;;;;;4973289;28;20026;-81
2022/12/03 03:13:16;;;;;;;71.67;24.30;;;;;;;;;;4972646;28;20062;-81
2022/12/03 03:15:43;;;;;;;68.60;23.33;;;;;;;;;;4971943;28;20544;-80
2022/12/03 03:18:11;;;;;;;66.40;22.47;;;;;;;;;;4971245;28;20113;-81
2022/12/03 03:20:37;;;;;;;74.90;24.53;;;;;;;;;;4971071;28;20022;-80
2022/12/03 03:23:16;;;;;;;72.07;24.73;;;;;;;;;;4972590;28;20023;-80
2022/12/03 03:25:48;;;;;;;78.27;23.70;;;;;;;;;;4974164;28;20038;-80
2022/12/03 03:28:15;;;;;;;65.90;22.30;;;;;;;;;;4992507;28;20218;-81
2022/12/03 03:30:42;;;;;;;67.73;23.50;;;;;;;;;;4992848;28;20463;-81
2022/12/03 03:33:08;;;;;;;62.77;21.53;;;;;;;;;;4992458;28;20419;-81
2022/12/03 03:35:35;;;;;;;64.70;21.00;;;;;;;;;;4995260;28;20034;-80
2022/12/03 03:38:01;;;;;;;58.67;21.23;;;;;;;;;;4995744;28;20034;-78
2022/12/03 03:40:27;;;;;;;69.07;22.03;;;;;;;;;;4993169;28;20030;-80
2022/12/03 03:42:54;;;;;;;66.23;22.23;;;;;;;;;;4991968;28;20018;-81
2022/12/03 03:45:19;;;;;;;60.63;21.03;;;;;;;;;;4991468;28;20022;-80
2022/12/03 03:47:45;;;;;;;63.10;22.63;;;;;;;;;;5007324;28;20029;-80
2022/12/03 03:50:12;;;;;;;60.47;22.93;;;;;;;;;;4990741;28;20034;-80
2022/12/03 03:52:40;;;;;;;69.77;24.10;;;;;;;;;;4990772;28;20101;-80
2022/12/03 03:55:06;;;;;;;65.90;22.43;;;;;;;;;;4989799;28;20080;-80
2022/12/03 03:57:32;;;;;;;60.20;21.63;;;;;;;;;;4990615;28;20442;-81
2022/12/03 03:59:58;;;;;;;64.17;21.30;;;;;;;;;;4991652;28;20054;-80
2022/12/03 04:02:25;;;;;;;63.60;22.20;;;;;;;;;;4990701;28;20097;-81
2022/12/03 04:04:51;;;;;;;61.27;20.03;;;;;;;;;;4992679;28;20042;-80
2022/12/03 04:07:17;;;;;;;63.53;21.90;;;;;;;;;;4992272;28;20056;-81
2022/12/03 04:09:43;;;;;;;58.10;19.67;;;;;;;;;;4991304;28;20022;-81
2022/12/03 04:14:54;;;;;;;59.00;21.63;;;;;;;;;;4992651;28;20028;-81
2022/12/03 04:17:20;;;;;;;67.40;22.40;;;;;;;;;;4992828;28;20147;-82
2022/12/03 04:19:45;;;;;;;63.47;22.10;;;;;;;;;;4991420;28;20037;-82
2022/12/03 04:28:47;;;;;;;65.90;22.70;;;;;;;;;;4992285;28;20100;-80
2022/12/03 04:30:34;;;;;;;58.07;21.80;;;;;;;;;;4972446;28;20118;-81
2022/12/03 04:35:44;;;;;;;58.90;21.60;;;;;;;;;;4991706;28;20490;-81
2022/12/03 04:38:12;;;;;;;67.10;23.03;;;;;;;;;;4989950;28;20053;-81
2022/12/03 04:43:22;;;;;;;56.17;20.70;;;;;;;;;;4991759;28;20029;-79
2022/12/03 04:45:47;;;;;;;66.37;22.03;;;;;;;;;;4990539;28;20517;-82
2022/12/03 04:48:13;;;;;;;66.87;22.20;;;;;;;;;;4989834;28;20105;-81
2022/12/03 04:50:38;;;;;;;74.67;23.33;;;;;;;;;;4989762;28;20070;-81
2022/12/03 04:53:04;;;;;;;65.33;20.23;;;;;;;;;;4990265;28;20026;-81
2022/12/03 04:55:29;;;;;;;61.13;22.83;;;;;;;;;;4989713;28;20026;-81
2022/12/03 04:57:55;;;;;;;62.93;22.40;;;;;;;;;;5006225;28;20026;-82
2022/12/03 05:00:20;;;;;;;66.00;20.57;;;;;;;;;;4989183;28;20038;-80
2022/12/03 05:02:46;;;;;;;58.70;20.27;;;;;;;;;;4992662;28;20057;-81
2022/12/03 05:05:12;;;;;;;65.80;22.63;;;;;;;;;;4991073;28;20443;-81
2022/12/03 05:07:37;;;;;;;51.43;19.30;;;;;;;;;;4995006;28;20030;-82
2022/12/03 05:10:04;;;;;;;57.87;21.97;;;;;;;;;;4995113;28;20034;-81
2022/12/03 05:12:29;;;;;;;56.87;19.77;;;;;;;;;;4995332;28;20120;-81
2022/12/03 05:14:54;;;;;;;61.03;19.83;;;;;;;;;;5003543;28;20060;-81
2022/12/03 05:17:20;;;;;;;63.33;21.60;;;;;;;;;;4997063;28;20482;-81
2022/12/03 05:22:29;;;;;;;56.67;21.10;;;;;;;;;;4995340;28;20088;-80
2022/12/03 05:24:55;;;;;;;60.37;22.17;;;;;;;;;;4993776;28;20030;-81
2022/12/03 05:27:20;;;;;;;62.67;22.20;;;;;;;;;;5009895;28;20080;-80
2022/12/03 05:29:46;;;;;;;62.10;22.57;;;;;;;;;;4994800;28;20439;-80
2022/12/03 05:32:12;;;;;;;66.53;22.20;;;;;;;;;;4994809;28;20378;-80
2022/12/03 05:34:38;;;;;;;62.30;24.27;;;;;;;;;;5009998;28;20027;-81
2022/12/03 05:37:03;;;;;;;70.93;24.10;;;;;;;;;;4994543;28;20526;-80
2022/12/03 05:39:29;;;;;;;61.93;23.53;;;;;;;;;;4992568;28;20149;-81
2022/12/03 05:44:38;;;;;;;61.13;20.93;;;;;;;;;;4994853;28;20076;-81
2022/12/03 05:47:04;;;;;;;61.70;23.97;;;;;;;;;;4993494;28;20026;-80
2022/12/03 05:49:29;;;;;;;65.53;22.37;;;;;;;;;;4991846;28;20463;-80
2022/12/03 05:51:55;;;;;;;61.47;20.83;;;;;;;;;;5008307;28;20030;-80
2022/12/03 05:54:20;;;;;;;61.77;20.20;;;;;;;;;;4992140;28;20030;-80
2022/12/03 05:56:46;;;;;;;63.80;21.40;;;;;;;;;;5008884;28;20430;-81
2022/12/03 05:59:11;;;;;;;62.87;22.87;;;;;;;;;;4994028;28;20070;-80
2022/12/03 06:01:37;;;;;;;64.70;22.53;;;;;;;;;;5008522;28;20045;-80
2022/12/03 06:04:02;;;;;;;61.73;21.33;;;;;;;;;;5009400;28;20072;-80
2022/12/03 06:06:28;;;;;;;53.70;19.00;;;;;;;;;;5008915;28;20116;-81
2022/12/03 06:08:53;;;;;;;59.30;20.90;;;;;;;;;;4993211;28;20040;-82
2022/12/03 06:11:19;;;;;;;58.83;20.07;;;;;;;;;;4994978;28;20026;-82
2022/12/03 06:13:44;;;;;;;57.23;20.70;;;;;;;;;;4995749;28;20034;-81
2022/12/03 06:16:10;;;;;;;69.33;21.83;;;;;;;;;;4996455;28;20584;-81
2022/12/03 06:18:36;;;;;;;58.87;19.73;;;;;;;;;;5009963;28;20037;-82
2022/12/03 06:21:02;;;;;;;58.00;21.10;;;;;;;;;;4993003;28;20037;-81
2022/12/03 06:23:27;;;;;;;56.27;20.40;;;;;;;;;;4993451;28;20347;-80
2022/12/03 06:25:53;;;;;;;58.27;19.90;;;;;;;;;;5006400;28;20030;-81
2022/12/03 06:28:18;;;;;;;53.13;20.17;;;;;;;;;;4973674;28;20031;-81
2022/12/03 06:30:44;;;;;;;55.30;20.53;;;;;;;;;;4974172;28;20031;-81
2022/12/03 06:33:09;;;;;;;51.30;19.73;;;;;;;;;;4975261;28;20526;-83
2022/12/03 06:35:35;;;;;;;64.23;22.37;;;;;;;;;;4974911;28;20483;-81
2022/12/03 06:38:00;;;;;;;53.73;19.70;;;;;;;;;;4974914;28;20031;-81
2022/12/03 06:40:26;;;;;;;51.50;19.47;;;;;;;;;;4973925;28;20448;-82
2022/12/03 06:42:52;;;;;;;55.90;20.20;;;;;;;;;;4973562;28;20439;-82
2022/12/03 06:45:17;;;;;;;56.10;20.43;;;;;;;;;;4978674;28;20038;-81
2022/12/03 06:47:43;;;;;;;66.03;22.43;;;;;;;;;;4974043;28;20038;-81
2022/12/03 06:50:09;;;;;;;57.63;20.67;;;;;;;;;;4973792;28;20415;-81
2022/12/03 06:52:35;;;;;;;54.23;19.00;;;;;;;;;;4972695;28;20117;-81
2022/12/03 06:55:00;;;;;;;47.30;19.57;;;;;;;;;;4972817;28;20038;-81
2022/12/03 06:57:26;;;;;;;55.13;19.17;;;;;;;;;;4973445;28;20106;-81
2022/12/03 06:59:51;;;;;;;48.43;19.77;;;;;;;;;;4973367;28;20085;-79
2022/12/03 07:02:17;;;;;;;53.50;18.70;;;;;;;;;;4971509;28;20027;-81
2022/12/03 07:04:42;;;;;;;58.20;19.30;;;;;;;;;;4975540;28;20125;-80
2022/12/03 07:07:08;;;;;;;60.67;21.73;;;;;;;;;;4973109;28;20464;-81
2022/12/03 07:09:33;;;;;;;63.17;20.97;;;;;;;;;;4972215;28;20034;-81
2022/12/03 07:11:59;;;;;;;50.07;19.27;;;;;;;;;;4972839;28;20081;-81
2022/12/03 07:14:24;;;;;;;49.20;18.83;;;;;;;;;;4972136;28;20034;-81
2022/12/03 07:16:50;;;;;;;51.00;19.23;;;;;;;;;;4973857;28;20407;-81
2022/12/03 07:19:16;;;;;;;46.00;18.80;;;;;;;;;;4972114;28;20030;-81
2022/12/03 07:21:41;;;;;;;48.87;18.70;;;;;;;;;;4971473;28;20472;-81
2022/12/03 07:24:07;;;;;;;53.47;19.63;;;;;;;;;;4971581;28;20046;-81
2022/12/03 07:26:32;;;;;;;60.33;20.43;;;;;;;;;;4972716;28;20412;-80
2022/12/03 07:29:00;;;;;;;61.70;21.60;;;;;;;;;;4973469;28;20045;-81
2022/12/03 07:31:25;;;;;;;55.10;19.67;;;;;;;;;;4971795;28;20081;-83
2022/12/03 07:33:51;;;;;;;48.87;19.30;;;;;;;;;;4972903;28;20113;-81
2022/12/03 07:36:16;;;;;;;49.17;19.13;;;;;;;;;;4971582;28;20026;-83
2022/12/03 07:38:42;;;;;;;54.53;19.37;;;;;;;;;;4971971;28;20102;-81
2022/12/03 07:41:07;;;;;;;52.17;20.23;;;;;;;;;;4971250;28;20031;-82
2022/12/03 07:43:33;;;;;;;50.47;19.27;;;;;;;;;;4971339;28;20031;-82
2022/12/03 07:45:58;;;;;;;51.97;19.40;;;;;;;;;;4971382;28;20022;-81
2022/12/03 07:48:24;;;;;;;53.07;19.90;;;;;;;;;;4972460;28;20077;-81
2022/12/03 07:50:49;;;;;;;51.67;18.90;;;;;;;;;;4972699;28;20093;-81
2022/12/03 07:53:15;;;;;;;57.50;20.13;;;;;;;;;;4971144;28;20121;-80
2022/12/03 07:55:40;;;;;;;47.90;17.87;;;;;;;;;;4971449;28;20043;-81
2022/12/03 07:58:06;;;;;;;50.10;18.83;;;;;;;;;;4987253;28;20122;-80
2022/12/03 08:00:31;;;;;;;53.53;20.43;;;;;;;;;;4971036;28;20102;-81
2022/12/03 08:02:57;;;;;;;49.70;18.43;;;;;;;;;;4972928;28;20061;-81
2022/12/03 08:05:22;;;;;;;49.70;19.57;;;;;;;;;;4971051;28;20126;-81
2022/12/03 08:07:48;;;;;;;54.43;19.00;;;;;;;;;;4971339;28;20031;-81
2022/12/03 08:10:13;;;;;;;49.00;17.43;;;;;;;;;;4973014;28;20030;-81
2022/12/03 08:12:39;;;;;;;46.60;16.93;;;;;;;;;;4972211;28;20061;-82
2022/12/03 08:15:09;;;;;;;52.23;20.57;;;;;;;;;;4972458;28;20027;-81
2022/12/03 08:17:35;;;;;;;50.67;17.53;;;;;;;;;;4972050;28;20057;-82
2022/12/03 08:20:00;;;;;;;50.63;18.33;;;;;;;;;;4972563;28;20132;-82
2022/12/03 08:22:26;;;;;;;58.00;20.03;;;;;;;;;;4974309;28;20079;-82
2022/12/03 08:24:52;;;;;;;51.50;19.07;;;;;;;;;;4972940;28;20034;-81
2022/12/03 08:27:18;;;;;;;47.70;17.37;;;;;;;;;;4972056;28;20037;-81
2022/12/03 08:29:45;;;;;;;42.90;16.50;;;;;;;;;;4972191;28;20074;-82
2022/12/03 08:32:11;;;;;;;57.43;20.03;;;;;;;;;;4972883;28;20030;-81
2022/12/03 08:34:41;;;;;;;52.50;19.93;;;;;;;;;;4971543;28;20031;-82
2022/12/03 08:37:16;;;;;;;43.97;18.77;;;;;;;;;;4972271;28;20082;-82
2022/12/03 08:39:45;;;;;;;50.43;19.17;;;;;;;;;;4972817;28;20058;-81
2022/12/03 08:42:41;;;;;;;46.93;17.40;;;;;;;;;;4977428;28;20057;-82
2022/12/03 08:45:31;;;;;;;49.47;18.20;;;;;;;;;;4996428;28;20042;-82
2022/12/03 08:47:59;;;;;;;42.90;17.77;;;;;;;;;;4978967;28;20030;-80
2022/12/03 08:50:31;;;;;;;49.00;18.07;;;;;;;;;;4976107;28;20058;-81
2022/12/03 08:53:13;;;;;;;42.00;19.00;;;;;;;;;;4978340;28;20026;-81
2022/12/03 08:55:51;;;;;;;49.15;19.10;;;;;;;;;;4981222;28;20033;-83
2022/12/03 08:58:47;;;;;;;48.47;17.97;;;;;;;;;;4978315;28;20035;-81
2022/12/03 09:01:13;;;;;;;47.73;17.97;;;;;;;;;;4972114;28;20035;-81
2022/12/03 09:03:46;;;;;;;46.90;16.83;;;;;;;;;;4979702;28;20466;-80
2022/12/03 09:06:11;;;;;;;49.57;18.47;;;;;;;;;;4983922;28;20027;-81
2022/12/03 09:08:37;;;;;;;49.60;19.33;;;;;;;;;;4975828;28;20562;-81
2022/12/03 09:11:02;;;;;;;46.37;18.70;;;;;;;;;;4975299;28;20023;-80
2022/12/03 09:13:28;;;;;;;50.73;20.97;;;;;;;;;;4991086;28;20023;-82
2022/12/03 09:15:53;;;;;;;51.47;19.83;;;;;;;;;;4976894;28;20357;-81
2022/12/03 09:18:18;;;;;;;50.00;18.53;;;;;;;;;;4976528;28;20084;-82
2022/12/03 09:20:44;;;;;;;50.30;18.93;;;;;;;;;;4975077;28;20034;-82
2022/12/03 09:23:09;;;;;;;46.30;19.43;;;;;;;;;;4975512;28;20051;-80
2022/12/03 09:25:35;;;;;;;48.90;19.00;;;;;;;;;;4975154;28;20038;-81
2022/12/03 09:28:00;;;;;;;50.97;19.23;;;;;;;;;;4994078;28;20550;-81
2022/12/03 09:30:27;;;;;;;45.53;17.97;;;;;;;;;;5010665;28;20022;-83
2022/12/03 09:32:52;;;;;;;53.00;19.07;;;;;;;;;;4993622;28;20057;-80
2022/12/03 09:35:19;;;;;;;53.67;18.63;;;;;;;;;;4994885;28;20026;-79
2022/12/03 09:37:44;;;;;;;56.50;19.57;;;;;;;;;;4994338;28;20030;-82
2022/12/03 09:40:11;;;;;;;52.27;19.43;;;;;;;;;;4994946;28;20033;-81
2022/12/03 09:42:37;;;;;;;52.73;18.93;;;;;;;;;;4994746;28;20026;-81
2022/12/03 09:45:09;;;;;;;47.80;18.87;;;;;;;;;;5009887;28;20092;-82
2022/12/03 09:47:38;;;;;;;41.47;16.42;;;;;;;;;;4994430;28;20119;-84
2022/12/03 09:50:05;;;;;;;48.57;19.30;;;;;;;;;;4993293;28;20034;-80
2022/12/03 09:52:33;;;;;;;49.90;18.47;;;;;;;;;;4992225;28;20041;-82
2022/12/03 09:55:04;;;;;;;47.97;18.20;;;;;;;;;;4995158;28;20093;-81
2022/12/03 09:57:30;;;;;;;58.05;20.38;;;;;;;;;;4993539;28;20068;-81
2022/12/03 09:59:56;;;;;;;51.43;20.03;;;;;;;;;;4994550;28;20062;-81
2022/12/03 10:02:28;;;;;;;51.90;18.97;;;;;;;;;;5010063;28;20049;-82
2022/12/03 10:04:54;;;;;;;44.95;18.13;;;;;;;;;;4993712;28;20110;-82
2022/12/03 10:07:21;;;;;;;49.17;18.83;;;;;;;;;;5009713;28;20031;-82
2022/12/03 10:09:46;;;;;;;51.40;18.20;;;;;;;;;;4994112;28;20030;-81
2022/12/03 10:12:13;;;;;;;45.30;18.13;;;;;;;;;;4994246;28;20570;-81
2022/12/03 10:14:39;;;;;;;50.33;18.83;;;;;;;;;;4993771;28;20158;-81
2022/12/03 10:17:04;;;;;;;49.87;19.17;;;;;;;;;;4993330;28;20030;-83
2022/12/03 10:19:34;;;;;;;43.10;16.87;;;;;;;;;;4994834;28;20173;-83
2022/12/03 10:22:00;;;;;;;47.00;18.97;;;;;;;;;;4994018;28;20172;-83
2022/12/03 10:24:25;;;;;;;48.93;20.43;;;;;;;;;;4993667;28;20054;-81
2022/12/03 10:26:54;;;;;;;44.87;18.60;;;;;;;;;;4986356;28;20026;-83
2022/12/03 10:29:26;;;;;;;46.83;19.17;;;;;;;;;;4974394;28;20053;-81
2022/12/03 10:32:06;;;;;;;43.22;17.88;;;;;;;;;;4990452;28;20026;-83
2022/12/03 10:34:36;;;;;;;47.60;18.73;;;;;;;;;;4975140;28;20081;-80
2022/12/03 10:37:18;;;;;;;44.80;18.83;;;;;;;;;;4976397;28;20033;-82
2022/12/03 10:40:07;;;;;;;50.27;19.07;;;;;;;;;;4974953;28;20035;-82
2022/12/03 10:42:39;;;;;;;44.50;18.77;;;;;;;;;;4975522;28;20285;-82
2022/12/03 10:45:19;;;;;;;47.17;18.42;;;;;;;;;;4960024;28;20050;-82
2022/12/03 10:48:10;;;;;;;46.27;19.13;;;;;;;;;;4974791;28;20035;-82
2022/12/03 10:50:36;;;;;;;43.77;16.00;;;;;;;;;;4973881;28;20030;-83
2022/12/03 10:53:02;;;;;;;44.13;17.33;;;;;;;;;;4990145;28;20403;-82
2022/12/03 10:55:31;;;;;;;43.07;16.47;;;;;;;;;;4972689;28;20045;-82
2022/12/03 10:57:57;;;;;;;44.47;18.23;;;;;;;;;;4974194;28;20023;-82
2022/12/03 11:00:22;;;;;;;50.77;19.60;;;;;;;;;;4972499;28;20398;-82
2022/12/03 11:02:48;;;;;;;40.53;17.47;;;;;;;;;;4989123;28;20030;-81
2022/12/03 11:05:20;;;;;;;43.90;17.47;;;;;;;;;;4983223;28;20050;-82
2022/12/03 11:07:46;;;;;;;47.57;19.13;;;;;;;;;;4975042;28;20034;-81
2022/12/03 11:10:14;;;;;;;45.73;19.83;;;;;;;;;;4972474;28;20026;-83
2022/12/03 11:12:40;;;;;;;42.43;16.90;;;;;;;;;;4972299;28;20023;-83
2022/12/03 11:15:13;;;;;;;44.77;18.37;;;;;;;;;;4972717;28;20022;-83
2022/12/03 11:17:52;;;;;;;39.77;16.17;;;;;;;;;;4972205;28;20027;-82
2022/12/03 11:20:23;;;;;;;38.30;16.73;;;;;;;;;;4972251;28;20121;-84
2022/12/03 11:22:54;;;;;;;49.13;16.80;;;;;;;;;;4972599;28;20026;-80
2022/12/03 11:25:28;;;;;;;40.83;18.03;;;;;;;;;;4973087;28;20031;-81
2022/12/03 11:28:12;;;;;;;49.97;19.33;;;;;;;;;;4993465;28;20562;-83
2022/12/03 11:30:57;;;;;;;37.07;15.87;;;;;;;;;;5001445;28;20058;-82
2022/12/03 11:33:28;;;;;;;45.87;18.70;;;;;;;;;;5004068;28;20027;-82
2022/12/03 11:36:03;;;;;;;45.42;18.88;;;;;;;;;;4996869;28;20454;-82
2022/12/03 11:38:40;;;;;;;44.37;17.80;;;;;;;;;;4993255;28;20034;-82
2022/12/03 11:41:31;;;;;;;43.57;18.50;;;;;;;;;;4973910;28;20205;-80
2022/12/03 11:44:00;;;;;;;42.90;17.37;;;;;;;;;;4998214;28;20103;-81
2022/12/03 11:46:35;;;;;;;47.83;18.97;;;;;;;;;;5015225;28;20034;-82
2022/12/03 11:49:02;;;;;;;40.27;18.37;;;;;;;;;;4997515;28;20030;-83
2022/12/03 11:51:29;;;;;;;44.83;18.10;;;;;;;;;;4991274;28;20112;-82
2022/12/03 11:53:57;;;;;;;48.07;18.87;;;;;;;;;;4991417;28;20038;-81
2022/12/03 11:56:25;;;;;;;41.47;19.17;;;;;;;;;;4991409;28;20033;-81
2022/12/03 11:59:00;;;;;;;43.07;18.43;;;;;;;;;;5007747;28;20053;-83
2022/12/03 12:01:39;;;;;;;52.70;20.53;;;;;;;;;;4991208;28;20048;-81
2022/12/03 12:04:26;;;;;;;48.50;19.20;;;;;;;;;;4991965;28;20046;-82
2022/12/03 12:06:52;;;;;;;53.07;20.17;;;;;;;;;;4991140;28;20359;-83
2022/12/03 12:09:53;;;;;;;39.03;18.23;;;;;;;;;;5007372;28;20080;-82
2022/12/03 12:12:27;;;;;;;43.50;18.03;;;;;;;;;;4998051;28;20034;-81
2022/12/03 12:14:53;;;;;;;44.50;19.07;;;;;;;;;;4993834;28;20028;-82
2022/12/03 12:17:32;;;;;;;45.90;18.60;;;;;;;;;;4991891;28;20526;-82
2022/12/03 12:20:23;;;;;;;47.40;19.90;;;;;;;;;;4991485;28;20029;-81
2022/12/03 12:22:52;;;;;;;45.07;18.37;;;;;;;;;;4992861;28;20035;-83
2022/12/03 12:25:39;;;;;;;39.93;17.50;;;;;;;;;;4991651;28;20073;-81
2022/12/03 12:28:06;;;;;;;43.03;18.60;;;;;;;;;;4971983;28;20027;-84
2022/12/03 12:30:32;;;;;;;38.43;17.20;;;;;;;;;;4971894;28;20371;-81
2022/12/03 12:33:12;;;;;;;46.27;18.20;;;;;;;;;;4973351;28;20096;-82
2022/12/03 12:35:37;;;;;;;46.53;20.23;;;;;;;;;;4988438;28;20033;-81
2022/12/03 12:38:06;;;;;;;45.80;21.30;;;;;;;;;;4971977;28;20217;-82
2022/12/03 12:40:35;;;;;;;47.23;19.73;;;;;;;;;;4987817;28;20041;-81
2022/12/03 12:43:09;;;;;;;51.43;20.43;;;;;;;;;;4971944;28;20034;-83
2022/12/03 12:45:40;;;;;;;49.33;19.90;;;;;;;;;;4973356;28;20027;-82
2022/12/03 12:48:25;;;;;;;46.23;19.70;;;;;;;;;;4972398;28;20649;-81
2022/12/03 12:50:57;;;;;;;41.87;18.47;;;;;;;;;;4971410;28;20027;-81
2022/12/03 12:53:31;;;;;;;48.50;19.90;;;;;;;;;;4971983;28;20035;-81
2022/12/03 12:56:05;;;;;;;48.67;19.40;;;;;;;;;;4973475;28;20031;-82
2022/12/03 12:58:32;;;;;;;47.10;19.63;;;;;;;;;;4972034;28;20035;-80
2022/12/03 13:01:04;;;;;;;46.27;21.17;;;;;;;;;;4987237;28;20537;-82
2022/12/03 13:03:36;;;;;;;39.73;17.73;;;;;;;;;;4989358;28;20042;-82
2022/12/03 13:06:02;;;;;;;;;;;;;;;;;;4972391;28;20041;-82
2022/12/03 13:08:39;;;;;;;44.10;19.17;;;;;;;;;;4974843;28;19910;-81
2022/12/03 13:11:15;;;;;;;42.87;18.30;;;;;;;;;;4977070;28;20051;-81
2022/12/03 13:13:41;;;;;;;43.03;17.70;;;;;;;;;;4972261;28;20058;-80
2022/12/03 13:16:22;;;;;;;42.97;18.93;;;;;;;;;;4972301;28;20054;-81
2022/12/03 13:18:58;;;;;;;45.83;20.30;;;;;;;;;;4971156;28;20066;-81
2022/12/03 13:21:42;;;;;;;42.83;19.37;;;;;;;;;;4971924;28;20035;-81
2022/12/03 13:24:34;;;;;;;44.47;18.47;;;;;;;;;;4971260;28;20035;-81
2022/12/03 13:27:36;;;;;;;45.90;19.40;;;;;;;;;;4988555;28;20069;-81
2022/12/03 13:30:21;;;;;;;45.47;19.43;;;;;;;;;;4990763;28;20042;-80
2022/12/03 13:32:47;;;;;;;46.10;19.53;;;;;;;;;;4974017;28;20479;-81
2022/12/03 13:35:22;;;;;;;40.40;17.90;;;;;;;;;;4974424;28;20030;-80
2022/12/03 13:37:48;;;;;;;61.97;20.27;;;;;;;;;;4973933;28;20558;-83
2022/12/03 13:40:31;;;;;;;51.53;20.10;;;;;;;;;;4973899;28;20122;-81
2022/12/03 13:43:02;;;;;;;51.53;21.73;;;;;;;;;;4974559;28;20065;-81
2022/12/03 13:45:32;;;;;;;40.53;18.73;;;;;;;;;;4974506;28;20027;-81
2022/12/03 13:48:00;;;;;;;44.70;19.70;;;;;;;;;;4974818;28;20109;-81
2022/12/03 13:50:43;;;;;;;52.97;18.83;;;;;;;;;;4976076;28;20166;-81
2022/12/03 13:53:26;;;;;;;43.03;19.10;;;;;;;;;;4973937;28;20031;-80
2022/12/03 13:56:02;;;;;;;49.60;19.43;;;;;;;;;;4975662;28;20110;-81
2022/12/03 13:58:27;;;;;;;51.67;20.90;;;;;;;;;;4974871;28;20062;-81
2022/12/03 14:00:54;;;;;;;51.27;20.33;;;;;;;;;;4975989;28;20403;-81
2022/12/03 14:03:22;;;;;;;45.27;19.30;;;;;;;;;;4979101;28;20026;-80
2022/12/03 14:05:56;;;;;;;44.70;19.73;;;;;;;;;;4989817;28;20031;-81
2022/12/03 14:08:21;;;;;;;46.97;20.80;;;;;;;;;;4987117;28;20098;-80
2022/12/03 14:10:46;;;;;;;43.90;20.17;;;;;;;;;;4977327;28;20026;-82
2022/12/03 14:13:12;;;;;;;52.77;19.97;;;;;;;;;;4974376;28;20483;-80
2022/12/03 14:15:37;;;;;;;44.83;19.97;;;;;;;;;;4975471;28;20030;-80
2022/12/03 14:18:03;;;;;;;43.90;19.10;;;;;;;;;;4975408;28;20542;-81
2022/12/03 14:20:29;;;;;;;49.80;20.50;;;;;;;;;;4975148;28;20733;-83
2022/12/03 14:22:54;;;;;;;44.97;19.53;;;;;;;;;;4973175;28;20467;-80
2022/12/03 14:25:19;;;;;;;44.10;18.97;;;;;;;;;;4990279;28;20026;-81
2022/12/03 14:27:45;;;;;;;42.67;19.60;;;;;;;;;;4975006;28;20499;-80
2022/12/03 14:30:11;;;;;;;48.43;20.40;;;;;;;;;;4974941;28;20037;-80
2022/12/03 14:32:37;;;;;;;47.67;20.27;;;;;;;;;;4975176;28;20025;-81
2022/12/03 14:35:03;;;;;;;42.77;18.80;;;;;;;;;;4974656;28;20033;-81
2022/12/03 14:37:29;;;;;;;42.43;19.43;;;;;;;;;;4972952;28;20368;-81
2022/12/03 14:39:54;;;;;;;46.53;19.43;;;;;;;;;;4988036;28;20126;-80
2022/12/03 14:42:20;;;;;;;51.90;19.60;;;;;;;;;;4973902;28;20340;-81
2022/12/03 14:44:50;;;;;;;45.50;19.43;;;;;;;;;;4990077;28;20113;-81
2022/12/03 14:47:18;;;;;;;54.53;21.87;;;;;;;;;;4974117;28;20097;-80
2022/12/03 14:49:45;;;;;;;51.70;20.57;;;;;;;;;;4974931;28;20027;-80